createdAt,value
2023-05-15T00:01:11.437Z,3.50
2023-05-15T00:03:39.063Z,4.30
2023-05-15T00:06:06.865Z,4.10
2023-05-15T00:08:34.269Z,6.00
2023-05-15T00:11:02.286Z,5.30
2023-05-15T00:13:30.460Z,5.20
2023-05-15T00:15:58.214Z,5.60
2023-05-15T00:18:25.995Z,7.10
2023-05-15T00:20:53.775Z,5.90
2023-05-15T00:23:21.251Z,4.70
2023-05-15T00:25:48.977Z,4.90
2023-05-15T00:28:16.538Z,4.60
2023-05-15T00:30:44.198Z,4.30
2023-05-15T00:33:11.960Z,4.70
2023-05-15T00:35:39.835Z,4.60
2023-05-15T00:38:07.385Z,9.70
2023-05-15T00:40:35.049Z,13.10
2023-05-15T00:43:02.413Z,6.30
2023-05-15T00:45:30.168Z,5.60
2023-05-15T00:47:59.254Z,5.20
2023-05-15T00:50:27.031Z,6.10
2023-05-15T00:52:54.382Z,5.60
2023-05-15T00:55:21.868Z,5.70
2023-05-15T00:57:49.388Z,5.30
2023-05-15T01:00:18.806Z,5.00
2023-05-15T01:02:46.621Z,5.40
2023-05-15T01:05:14.329Z,15.00
2023-05-15T01:07:48.546Z,15.20
2023-05-15T01:10:16.305Z,15.10
2023-05-15T01:12:43.661Z,15.00
2023-05-15T01:15:11.635Z,11.60
2023-05-15T01:17:39.001Z,9.40
2023-05-15T01:20:07.558Z,10.00
2023-05-15T01:22:45.186Z,6.90
2023-05-15T01:25:23.652Z,7.70
2023-05-15T01:27:59.634Z,5.50
2023-05-15T01:30:28.833Z,5.50
2023-05-15T01:33:21.070Z,5.40
2023-05-15T01:36:23.458Z,5.20
2023-05-15T01:38:52.457Z,5.30
2023-05-15T01:41:24.503Z,9.70
2023-05-15T01:44:15.201Z,5.90
2023-05-15T01:46:46.824Z,5.10
2023-05-15T01:49:14.530Z,5.00
2023-05-15T01:51:42.073Z,4.10
2023-05-15T01:54:09.734Z,4.70
2023-05-15T01:56:38.219Z,8.50
2023-05-15T01:59:05.988Z,8.60
2023-05-15T02:01:33.974Z,8.30
2023-05-15T02:04:02.255Z,8.20
2023-05-15T02:06:31.931Z,8.50
2023-05-15T02:09:01.651Z,8.40
2023-05-15T02:11:29.300Z,8.60
2023-05-15T02:13:57.149Z,7.50
2023-05-15T02:16:24.769Z,7.90
2023-05-15T02:18:52.982Z,8.00
2023-05-15T02:21:20.769Z,6.30
2023-05-15T02:23:48.537Z,9.20
2023-05-15T02:26:35.140Z,8.20
2023-05-15T02:29:24.816Z,7.70
2023-05-15T02:32:04.748Z,7.70
2023-05-15T02:34:38.786Z,8.20
2023-05-15T02:37:07.870Z,8.20
2023-05-15T02:39:36.147Z,7.50
2023-05-15T02:42:04.016Z,8.80
2023-05-15T02:44:31.478Z,10.10
2023-05-15T02:46:59.035Z,13.30
2023-05-15T02:49:26.699Z,28.40
2023-05-15T02:51:54.349Z,27.20
2023-05-15T02:54:21.756Z,30.60
2023-05-15T02:56:49.263Z,27.80
2023-05-15T02:59:20.048Z,30.60
2023-05-15T03:01:48.105Z,23.00
2023-05-15T03:04:15.792Z,15.30
2023-05-15T03:06:43.698Z,15.80
2023-05-15T03:09:11.375Z,19.30
2023-05-15T03:11:38.941Z,16.40
2023-05-15T03:14:06.374Z,16.50
2023-05-15T03:16:33.971Z,17.20
2023-05-15T03:19:03.054Z,17.20
2023-05-15T03:21:30.801Z,21.90
2023-05-15T03:23:58.248Z,26.80
2023-05-15T03:26:26.113Z,22.90
2023-05-15T03:28:54.595Z,19.70
2023-05-15T03:31:22.179Z,16.10
2023-05-15T03:33:51.624Z,20.10
2023-05-15T03:36:19.438Z,24.30
2023-05-15T03:38:46.833Z,19.50
2023-05-15T03:41:14.764Z,20.00
2023-05-15T03:43:42.407Z,20.00
2023-05-15T03:46:09.914Z,21.10
2023-05-15T03:48:41.078Z,21.60
2023-05-15T03:51:08.359Z,22.80
2023-05-15T03:53:35.821Z,21.50
2023-05-15T03:56:03.877Z,20.30
2023-05-15T03:58:32.577Z,17.80
2023-05-15T04:01:00.340Z,15.60
2023-05-15T04:03:27.919Z,13.50
2023-05-15T04:05:55.885Z,10.70
2023-05-15T04:08:23.536Z,11.30
2023-05-15T04:10:51.329Z,18.80
2023-05-15T04:13:18.953Z,8.30
2023-05-15T04:15:46.936Z,8.80
2023-05-15T04:18:14.196Z,9.00
2023-05-15T04:20:41.837Z,9.40
2023-05-15T04:23:09.404Z,7.10
2023-05-15T04:25:37.979Z,8.10
2023-05-15T04:28:06.762Z,6.80
2023-05-15T04:30:34.526Z,10.90
2023-05-15T04:33:02.149Z,7.50
2023-05-15T04:35:30.369Z,6.40
2023-05-15T04:37:57.821Z,6.20
2023-05-15T04:40:25.586Z,7.00
2023-05-15T04:42:53.145Z,6.40
2023-05-15T04:45:21.211Z,8.30
2023-05-15T04:47:49.339Z,19.90
2023-05-15T04:50:16.858Z,20.20
2023-05-15T04:52:46.040Z,16.10
2023-05-15T04:55:13.462Z,18.20
2023-05-15T04:57:41.568Z,24.80
2023-05-15T05:00:12.675Z,22.60
2023-05-15T05:02:40.517Z,24.50
2023-05-15T05:05:08.773Z,29.80
2023-05-15T05:07:36.228Z,36.20
2023-05-15T05:10:04.594Z,29.00
2023-05-15T05:12:31.897Z,38.30
2023-05-15T05:14:59.615Z,31.30
2023-05-15T05:17:27.213Z,27.70
2023-05-15T05:19:54.852Z,25.20
2023-05-15T05:22:22.490Z,24.30
2023-05-15T05:24:49.916Z,27.30
2023-05-15T05:27:17.513Z,32.20
2023-05-15T05:29:45.163Z,29.00
2023-05-15T05:32:12.832Z,26.10
2023-05-15T05:34:40.153Z,24.90
2023-05-15T05:37:07.680Z,25.80
2023-05-15T05:39:35.430Z,26.20
2023-05-15T05:42:03.167Z,34.60
2023-05-15T05:44:30.931Z,31.30
2023-05-15T05:46:58.313Z,22.00
2023-05-15T05:49:25.948Z,22.20
2023-05-15T05:51:53.401Z,29.90
2023-05-15T05:54:20.856Z,35.50
2023-05-15T05:56:48.425Z,36.90
2023-05-15T05:59:16.074Z,40.20
2023-05-15T06:01:43.750Z,37.30
2023-05-15T06:04:11.754Z,33.10
2023-05-15T06:06:39.582Z,23.70
2023-05-15T06:09:07.144Z,19.50
2023-05-15T06:11:34.621Z,21.20
2023-05-15T06:14:02.387Z,15.30
2023-05-15T06:16:30.238Z,13.60
2023-05-15T06:18:58.029Z,13.50
2023-05-15T06:21:25.544Z,9.80
2023-05-15T06:23:53.095Z,7.30
2023-05-15T06:26:22.501Z,6.60
2023-05-15T06:28:50.069Z,6.90
2023-05-15T06:31:17.857Z,5.80
2023-05-15T06:33:45.284Z,4.60
2023-05-15T06:36:12.804Z,4.90
2023-05-15T06:38:40.512Z,5.10
2023-05-15T06:41:08.271Z,5.10
2023-05-15T06:43:36.483Z,7.30
2023-05-15T06:46:05.357Z,7.90
2023-05-15T06:48:32.817Z,7.70
2023-05-15T06:51:00.557Z,7.60
2023-05-15T06:53:30.089Z,11.30
2023-05-15T06:55:57.419Z,14.50
2023-05-15T06:58:25.394Z,11.90
2023-05-15T07:00:54.242Z,13.00
2023-05-15T07:03:23.778Z,7.20
2023-05-15T07:05:52.680Z,7.10
2023-05-15T07:08:20.092Z,7.00
2023-05-15T07:10:48.912Z,6.30
2023-05-15T07:13:21.093Z,5.50
2023-05-15T07:15:49.253Z,6.60
2023-05-15T07:18:16.573Z,6.00
2023-05-15T07:20:44.059Z,7.00
2023-05-15T07:23:11.317Z,4.70
2023-05-15T07:25:38.985Z,3.90
2023-05-15T07:28:07.151Z,4.80
2023-05-15T07:30:34.202Z,4.10
2023-05-15T07:33:01.501Z,4.10
2023-05-15T07:35:28.695Z,3.90
2023-05-15T07:37:56.384Z,4.30
2023-05-15T07:40:23.736Z,4.40
2023-05-15T07:42:51.370Z,4.30
2023-05-15T07:45:19.076Z,3.50
2023-05-15T07:47:47.670Z,2.90
2023-05-15T07:50:15.186Z,3.10
2023-05-15T07:52:43.460Z,3.00
2023-05-15T07:55:11.051Z,3.50
2023-05-15T07:57:40.041Z,3.10
2023-05-15T08:00:13.498Z,2.90
2023-05-15T08:02:41.834Z,4.10
2023-05-15T08:05:10.657Z,4.70
2023-05-15T08:07:37.726Z,5.70
2023-05-15T08:10:06.532Z,5.10
2023-05-15T08:12:33.970Z,5.80
2023-05-15T08:15:01.519Z,7.20
2023-05-15T08:17:29.012Z,5.70
2023-05-15T08:19:56.348Z,5.10
2023-05-15T08:22:23.890Z,5.30
2023-05-15T08:24:51.250Z,3.70
2023-05-15T08:27:18.466Z,5.10
2023-05-15T08:29:46.278Z,8.50
2023-05-15T08:32:14.025Z,7.20
2023-05-15T08:34:41.067Z,6.20
2023-05-15T08:37:08.525Z,8.50
2023-05-15T08:39:35.792Z,7.30
2023-05-15T08:42:22.387Z,7.20
2023-05-15T08:44:50.549Z,6.40
2023-05-15T08:47:19.574Z,5.70
2023-05-15T08:50:05.345Z,8.30
2023-05-15T08:52:33.410Z,5.90
2023-05-15T08:55:01.497Z,4.70
2023-05-15T08:57:29.367Z,3.60
2023-05-15T08:59:57.012Z,6.90
2023-05-15T09:02:25.728Z,10.40
2023-05-15T09:04:53.150Z,10.60
2023-05-15T09:07:20.840Z,12.50
2023-05-15T09:09:48.493Z,10.80
2023-05-15T09:12:16.337Z,7.70
2023-05-15T09:14:44.312Z,7.30
2023-05-15T09:17:12.424Z,9.40
2023-05-15T09:19:43.323Z,10.00
2023-05-15T09:22:26.853Z,8.50
2023-05-15T09:24:55.544Z,6.30
2023-05-15T09:27:23.095Z,6.60
2023-05-15T09:29:54.558Z,6.90
2023-05-15T09:32:22.432Z,6.30
2023-05-15T09:34:50.188Z,6.10
2023-05-15T09:37:30.171Z,8.90
2023-05-15T09:40:09.277Z,7.50
2023-05-15T09:42:37.229Z,7.10
2023-05-15T09:45:06.220Z,5.20
2023-05-15T09:47:34.258Z,10.60
2023-05-15T09:50:02.474Z,10.60
2023-05-15T09:52:30.541Z,9.10
2023-05-15T09:54:58.231Z,6.20
2023-05-15T09:57:25.961Z,7.80
2023-05-15T09:59:53.488Z,8.60
2023-05-15T10:02:24.997Z,6.60
2023-05-15T10:04:57.235Z,8.20
2023-05-15T10:07:32.170Z,10.10
2023-05-15T10:10:00.448Z,11.40
2023-05-15T10:12:29.033Z,9.20
2023-05-15T10:14:57.101Z,8.50
2023-05-15T10:17:24.789Z,7.20
2023-05-15T10:19:58.532Z,6.70
2023-05-15T10:22:29.719Z,7.00
2023-05-15T10:25:03.262Z,8.80
2023-05-15T10:27:30.813Z,7.80
2023-05-15T10:29:58.839Z,8.10
2023-05-15T10:32:26.353Z,7.40
2023-05-15T10:34:54.577Z,7.80
2023-05-15T10:37:22.200Z,7.30
2023-05-15T10:39:50.078Z,5.70
2023-05-15T10:42:17.767Z,5.50
2023-05-15T10:44:45.222Z,5.70
2023-05-15T10:47:12.950Z,4.50
2023-05-15T10:49:40.768Z,5.70
2023-05-15T10:52:09.332Z,5.60
2023-05-15T10:54:36.987Z,6.10
2023-05-15T10:57:04.756Z,6.50
2023-05-15T10:59:32.951Z,6.30
2023-05-15T11:02:19.811Z,5.80
2023-05-15T11:04:47.911Z,3.70
2023-05-15T11:07:16.898Z,4.90
2023-05-15T11:09:44.540Z,4.00
2023-05-15T11:12:12.427Z,5.40
2023-05-15T11:14:42.139Z,5.90
2023-05-15T11:17:12.897Z,3.50
2023-05-15T11:19:49.357Z,3.50
2023-05-15T11:22:19.476Z,3.50
2023-05-15T11:24:52.862Z,3.10
2023-05-15T11:27:31.572Z,3.80
2023-05-15T11:30:18.621Z,3.40
2023-05-15T11:32:52.090Z,3.30
2023-05-15T11:35:46.166Z,3.70
2023-05-15T11:38:17.920Z,3.50
2023-05-15T11:40:56.235Z,3.60
2023-05-15T11:43:31.272Z,3.90
2023-05-15T11:46:09.686Z,4.40
2023-05-15T11:48:42.371Z,4.60
2023-05-15T11:51:26.645Z,4.70
2023-05-15T11:53:55.630Z,4.00
2023-05-15T11:56:24.856Z,4.10
2023-05-15T11:58:55.804Z,4.10
2023-05-15T12:01:23.302Z,4.50
2023-05-15T12:03:53.544Z,4.00
2023-05-15T12:08:56.465Z,4.50
2023-05-15T12:11:24.611Z,4.60
2023-05-15T12:13:54.511Z,3.90
2023-05-15T12:16:26.579Z,3.50
2023-05-15T12:18:54.496Z,4.20
2023-05-15T12:21:22.344Z,6.60
2023-05-15T12:24:06.540Z,3.80
2023-05-15T12:26:35.047Z,4.00
2023-05-15T12:29:02.712Z,3.30
2023-05-15T12:31:30.584Z,3.50
2023-05-15T12:33:58.105Z,3.90
2023-05-15T12:36:29.987Z,3.60
2023-05-15T12:38:58.570Z,3.80
2023-05-15T12:41:29.626Z,2.80
2023-05-15T12:43:57.217Z,2.50
2023-05-15T12:46:32.067Z,3.20
2023-05-15T12:49:00.111Z,3.70
2023-05-15T12:51:27.734Z,4.30
2023-05-15T12:53:57.854Z,3.50
2023-05-15T12:56:26.659Z,3.40
2023-05-15T12:58:55.019Z,4.90
2023-05-15T13:01:23.239Z,4.50
2023-05-15T13:03:51.577Z,4.90
2023-05-15T13:06:19.222Z,4.00
2023-05-15T13:08:47.946Z,4.70
2023-05-15T13:11:16.801Z,4.00
2023-05-15T13:13:49.429Z,5.20
2023-05-15T13:16:22.133Z,4.00
2023-05-15T13:18:49.816Z,5.50
2023-05-15T13:21:18.197Z,4.60
2023-05-15T13:23:46.168Z,3.50
2023-05-15T13:26:13.942Z,3.00
2023-05-15T13:28:42.323Z,4.50
2023-05-15T13:31:10.203Z,3.20
2023-05-15T13:33:37.836Z,3.50
2023-05-15T13:36:06.149Z,2.70
2023-05-15T13:38:33.654Z,3.10
2023-05-15T13:41:01.132Z,3.20
2023-05-15T13:43:28.482Z,3.10
2023-05-15T13:45:56.257Z,3.00
2023-05-15T13:48:23.604Z,2.70
2023-05-15T13:50:51.472Z,2.90
2023-05-15T13:53:19.235Z,2.50
2023-05-15T13:55:47.075Z,2.70
2023-05-15T13:58:14.864Z,2.70
2023-05-15T14:00:43.186Z,3.00
2023-05-15T14:03:14.118Z,3.20
2023-05-15T14:05:43.002Z,3.60
2023-05-15T14:08:11.352Z,3.50
2023-05-15T14:10:38.705Z,3.40
2023-05-15T14:13:06.378Z,9.50
2023-05-15T14:15:34.336Z,5.90
2023-05-15T14:18:02.146Z,3.70
2023-05-15T14:20:29.961Z,2.50
2023-05-15T14:22:57.553Z,3.20
2023-05-15T14:25:25.388Z,3.70
2023-05-15T14:27:53.049Z,4.70
2023-05-15T14:30:21.879Z,4.10
2023-05-15T14:32:49.643Z,4.30
2023-05-15T14:35:17.177Z,4.30
2023-05-15T14:37:45.316Z,3.90
2023-05-15T14:40:13.461Z,3.60
2023-05-15T14:42:41.015Z,3.90
2023-05-15T14:45:09.443Z,3.40
2023-05-15T14:47:37.039Z,3.60
2023-05-15T14:50:05.432Z,3.50
2023-05-15T14:52:32.731Z,14.90
2023-05-15T14:55:08.396Z,10.00
2023-05-15T14:57:38.183Z,17.20
2023-05-15T15:00:07.318Z,4.20
2023-05-15T15:02:34.931Z,3.30
2023-05-15T15:05:02.614Z,3.30
2023-05-15T15:07:33.036Z,3.20
2023-05-15T15:10:00.799Z,3.60
2023-05-15T15:12:28.938Z,3.00
2023-05-15T15:14:56.180Z,3.50
2023-05-15T15:17:24.187Z,3.20
2023-05-15T15:19:52.373Z,3.10
2023-05-15T15:22:19.926Z,3.80
2023-05-15T15:24:47.280Z,4.90
2023-05-15T15:27:14.633Z,3.90
2023-05-15T15:29:45.274Z,4.40
2023-05-15T15:32:13.116Z,4.20
2023-05-15T15:34:41.520Z,17.30
2023-05-15T15:37:08.908Z,6.10
2023-05-15T15:39:36.278Z,4.70
2023-05-15T15:42:05.692Z,5.00
2023-05-15T15:44:34.616Z,4.90
2023-05-15T15:47:02.690Z,4.20
2023-05-15T15:49:31.075Z,4.60
2023-05-15T15:51:58.413Z,4.10
2023-05-15T15:54:25.875Z,3.60
2023-05-15T15:56:53.547Z,4.00
2023-05-15T15:59:22.638Z,4.40
2023-05-15T16:01:50.118Z,8.40
2023-05-15T16:04:17.883Z,6.00
2023-05-15T16:06:46.029Z,5.00
2023-05-15T16:09:13.589Z,4.70
2023-05-15T16:11:41.044Z,5.60
2023-05-15T16:14:08.606Z,5.40
2023-05-15T16:16:36.170Z,5.70
2023-05-15T16:19:04.961Z,5.60
2023-05-15T16:21:32.610Z,7.60
2023-05-15T16:24:00.682Z,5.80
2023-05-15T16:26:28.345Z,5.60
2023-05-15T16:28:57.253Z,5.00
2023-05-15T16:31:25.006Z,5.90
2023-05-15T16:33:53.186Z,5.10
2023-05-15T16:36:20.628Z,5.60
2023-05-15T16:38:48.804Z,5.90
2023-05-15T16:41:16.580Z,5.60
2023-05-15T16:43:44.805Z,6.50
2023-05-15T16:46:12.224Z,9.90
2023-05-15T16:48:40.985Z,8.10
2023-05-15T16:51:09.503Z,7.30
2023-05-15T16:53:37.227Z,7.60
2023-05-15T16:56:05.093Z,9.80
2023-05-15T16:58:32.863Z,10.70
2023-05-15T17:01:00.416Z,8.70
2023-05-15T17:03:27.973Z,10.80
2023-05-15T17:05:55.637Z,12.80
2023-05-15T17:08:23.298Z,12.40
2023-05-15T17:10:51.307Z,10.80
2023-05-15T17:13:19.038Z,7.90
2023-05-15T17:15:47.581Z,7.70
2023-05-15T17:18:15.261Z,7.40
2023-05-15T17:20:42.934Z,7.70
2023-05-15T17:23:10.699Z,29.90
2023-05-15T17:25:37.955Z,11.20
2023-05-15T17:28:05.616Z,47.20
2023-05-15T17:30:33.306Z,18.80
2023-05-15T17:33:01.201Z,11.30
2023-05-15T17:35:30.747Z,9.60
2023-05-15T17:38:00.260Z,9.70
2023-05-15T17:40:30.465Z,10.20
2023-05-15T17:42:58.069Z,9.60
2023-05-15T17:45:27.372Z,10.30
2023-05-15T17:48:02.621Z,11.20
2023-05-15T17:50:30.451Z,10.00
2023-05-15T17:52:57.986Z,10.50
2023-05-15T17:55:25.595Z,13.80
2023-05-15T17:57:53.535Z,14.20
2023-05-15T18:00:21.611Z,10.10
2023-05-15T18:02:49.393Z,7.10
2023-05-15T18:05:17.640Z,8.20
2023-05-15T18:07:48.295Z,10.90
2023-05-15T18:10:16.028Z,9.90
2023-05-15T18:12:43.483Z,9.60
2023-05-15T18:15:11.353Z,9.30
2023-05-15T18:17:38.802Z,8.80
2023-05-15T18:20:07.518Z,8.50
2023-05-15T18:22:36.696Z,8.10
2023-05-15T18:25:04.993Z,5.70
2023-05-15T18:27:32.428Z,8.50
2023-05-15T18:30:00.193Z,10.50
2023-05-15T18:32:30.126Z,4.80
2023-05-15T18:34:59.210Z,8.70
2023-05-15T18:37:26.860Z,8.80
2023-05-15T18:39:57.390Z,7.70
2023-05-15T18:42:25.979Z,9.70
2023-05-15T18:44:55.078Z,8.50
2023-05-15T18:47:22.476Z,7.80
2023-05-15T18:49:49.981Z,7.80
2023-05-15T18:52:19.126Z,8.30
2023-05-15T18:54:46.849Z,4.90
2023-05-15T18:57:17.484Z,4.80
2023-05-15T18:59:45.443Z,5.00
2023-05-15T19:02:13.439Z,4.80
2023-05-15T19:04:41.275Z,6.00
2023-05-15T19:07:08.729Z,5.60
2023-05-15T19:09:36.616Z,4.50
2023-05-15T19:12:04.092Z,4.20
2023-05-15T19:14:32.536Z,4.80
2023-05-15T19:17:00.285Z,4.20
2023-05-15T19:19:27.963Z,4.20
2023-05-15T19:21:55.630Z,4.90
2023-05-15T19:24:23.282Z,3.40
2023-05-15T19:26:50.846Z,4.00
2023-05-15T19:29:18.093Z,3.60
2023-05-15T19:31:46.091Z,3.70
2023-05-15T19:34:14.140Z,3.60
2023-05-15T19:36:41.793Z,4.10
2023-05-15T19:39:09.457Z,3.30
2023-05-15T19:41:36.911Z,3.50
2023-05-15T19:44:04.876Z,3.90
2023-05-15T19:46:32.386Z,4.00
2023-05-15T19:48:59.905Z,4.00
2023-05-15T19:51:27.554Z,4.00
2023-05-15T19:53:56.059Z,3.80
2023-05-15T19:56:24.623Z,4.10
2023-05-15T19:58:52.894Z,4.60
2023-05-15T20:01:20.610Z,5.00
2023-05-15T20:03:48.397Z,5.00
2023-05-15T20:06:16.292Z,4.90
2023-05-15T20:08:43.847Z,4.60
2023-05-15T20:11:11.610Z,5.50
2023-05-15T20:13:39.579Z,5.30
2023-05-15T20:16:13.059Z,4.80
2023-05-15T20:18:41.640Z,5.10
2023-05-15T20:21:09.437Z,4.40
2023-05-15T20:23:36.894Z,5.30
2023-05-15T20:26:04.142Z,4.40
2023-05-15T20:28:31.723Z,4.90
2023-05-15T20:31:00.105Z,4.10
2023-05-15T20:33:27.702Z,4.90
2023-05-15T20:35:55.404Z,4.60
2023-05-15T20:38:25.625Z,4.70
2023-05-15T20:40:53.285Z,4.60
2023-05-15T20:43:20.611Z,4.30
2023-05-15T20:45:48.212Z,4.10
2023-05-15T20:48:15.871Z,4.60
2023-05-15T20:50:43.314Z,4.30
2023-05-15T20:53:10.766Z,4.90
2023-05-15T20:55:38.223Z,3.90
2023-05-15T20:58:05.892Z,4.00
2023-05-15T21:00:33.446Z,4.30
2023-05-15T21:03:01.217Z,3.50
2023-05-15T21:05:30.100Z,3.50
2023-05-15T21:07:57.865Z,3.80
2023-05-15T21:10:26.025Z,3.40
2023-05-15T21:12:53.922Z,3.60
2023-05-15T21:15:21.667Z,4.70
2023-05-15T21:17:48.906Z,3.80
2023-05-15T21:20:16.896Z,4.40
2023-05-15T21:22:44.866Z,7.50
2023-05-15T21:25:12.770Z,11.30
2023-05-15T21:27:40.798Z,12.00
2023-05-15T21:30:09.061Z,14.30
2023-05-15T21:32:36.706Z,19.50
2023-05-15T21:35:04.773Z,16.90
2023-05-15T21:37:32.259Z,13.40
2023-05-15T21:39:59.822Z,10.30
2023-05-15T21:42:27.278Z,7.60
2023-05-15T21:44:54.732Z,8.30
2023-05-15T21:47:22.373Z,8.10
2023-05-15T21:49:50.179Z,8.40
2023-05-15T21:52:17.718Z,8.90
2023-05-15T21:54:45.690Z,8.80
2023-05-15T21:57:13.228Z,6.70
2023-05-15T21:59:40.777Z,5.10
2023-05-15T22:02:08.420Z,5.00
2023-05-15T22:04:36.132Z,5.30
2023-05-15T22:07:03.573Z,5.20
2023-05-15T22:09:31.162Z,4.80
2023-05-15T22:11:58.901Z,4.20
2023-05-15T22:14:26.574Z,5.40
2023-05-15T22:16:54.263Z,4.10
2023-05-15T22:21:56.408Z,4.20
2023-05-15T22:24:23.972Z,5.20
2023-05-15T22:26:51.425Z,4.90
2023-05-15T22:29:18.692Z,4.80
2023-05-15T22:31:46.621Z,5.30
2023-05-15T22:34:14.049Z,5.80
2023-05-15T22:36:41.661Z,5.90
2023-05-15T22:39:09.324Z,6.20
2023-05-15T22:41:36.985Z,7.00
2023-05-15T22:44:05.369Z,6.00
2023-05-15T22:46:33.104Z,6.60
2023-05-15T22:49:01.957Z,7.00
2023-05-15T22:51:29.886Z,5.80
2023-05-15T22:53:57.445Z,6.60
2023-05-15T22:56:24.800Z,6.80
2023-05-15T22:58:53.792Z,5.70
2023-05-15T23:01:21.597Z,7.00
2023-05-15T23:03:49.287Z,6.70
2023-05-15T23:06:18.004Z,7.20
2023-05-15T23:08:45.562Z,5.80
2023-05-15T23:11:13.220Z,5.40
2023-05-15T23:13:40.769Z,5.40
2023-05-15T23:16:08.266Z,4.70
2023-05-15T23:18:36.978Z,4.80
2023-05-15T23:21:05.127Z,4.90
2023-05-15T23:23:32.902Z,6.00
2023-05-15T23:26:00.216Z,6.60
2023-05-15T23:28:27.724Z,7.30
2023-05-15T23:30:55.795Z,7.50
2023-05-15T23:33:23.841Z,8.80
2023-05-15T23:35:52.507Z,8.10
2023-05-15T23:38:22.542Z,8.20
2023-05-15T23:40:50.488Z,8.60
2023-05-15T23:43:17.945Z,7.70
2023-05-15T23:45:45.576Z,7.50
2023-05-15T23:48:13.104Z,5.20
2023-05-15T23:50:40.840Z,6.40
2023-05-15T23:53:08.793Z,5.20
2023-05-15T23:55:36.253Z,4.20
2023-05-15T23:58:03.660Z,4.20
